Time;durP1;ratioP1;P1;durP2;ratioP2;P2;SDS_P1;SDS_P2;PMS_P1;PMS_P2;Temp;Humidity;BMP_temperature;BMP_pressure;BME280_temperature;BME280_humidity;BME280_pressure;Samples;Min_cycle;Max_cycle;Signal;HPM_P1;HPM_P2
2022/07/03 00:00:19;;;;;;;3.23;2.27;;;15.60;99.90;;;;;;5083080;28;20209;-86
2022/07/03 00:02:45;;;;;;;3.43;1.93;;;;;;;;;;5082316;28;20291;-86
2022/07/03 00:05:11;;;;;;;2.60;2.17;;;;;;;;;;5080262;28;20176;-85
2022/07/03 00:07:38;;;;;;;2.30;2.03;;;15.50;99.90;;;;;;5079506;28;20177;-85
2022/07/03 00:10:04;;;;;;;2.37;1.90;;;;;;;;;;5078172;28;20176;-85
2022/07/03 00:12:31;;;;;;;3.67;1.90;;;15.50;99.90;;;;;;5076996;28;20197;-85
2022/07/03 00:14:58;;;;;;;3.23;2.10;;;;;;;;;;5077105;28;20175;-85
2022/07/03 00:17:24;;;;;;;2.60;2.33;;;;;;;;;;5090108;28;20224;-87
2022/07/03 00:19:50;;;;;;;3.00;2.10;;;;;;;;;;5101007;28;20172;-87
2022/07/03 00:22:16;;;;;;;2.93;2.10;;;15.40;99.90;;;;;;5094146;28;20208;-86
2022/07/03 00:24:52;;;;;;;2.43;2.23;;;15.40;99.90;;;;;;5087797;28;20180;-86
2022/07/03 00:27:19;;;;;;;2.90;2.10;;;15.40;99.90;;;;;;5088693;28;20189;-86
2022/07/03 00:29:46;;;;;;;2.70;2.00;;;;;;;;;;5087987;28;20244;-86
2022/07/03 00:32:21;;;;;;;2.10;1.90;;;15.50;99.90;;;;;;5089060;28;20564;-86
2022/07/03 00:34:50;;;;;;;2.70;2.00;;;15.40;99.90;;;;;;5095964;28;20177;-85
2022/07/03 00:37:16;;;;;;;4.77;2.37;;;;;;;;;;5098915;28;20189;-86
2022/07/03 00:39:43;;;;;;;2.63;2.10;;;15.40;99.90;;;;;;5092042;28;20185;-86
2022/07/03 00:42:11;;;;;;;3.10;2.37;;;15.30;99.90;;;;;;5082907;28;20192;-85
2022/07/03 00:44:54;;;;;;;2.07;1.87;;;15.30;99.90;;;;;;5084633;28;20165;-86
2022/07/03 00:47:25;;;;;;;2.23;1.90;;;15.20;99.90;;;;;;5083064;28;20177;-86
2022/07/03 00:49:53;;;;;;;2.73;2.23;;;15.30;99.90;;;;;;5082228;28;20183;-86
2022/07/03 00:52:20;;;;;;;3.00;2.40;;;15.30;99.90;;;;;;5083469;28;20193;-86
2022/07/03 00:54:54;;;;;;;3.00;2.60;;;15.30;99.90;;;;;;5083966;28;20180;-86
2022/07/03 00:57:22;;;;;;;2.70;2.13;;;15.10;99.90;;;;;;5082683;28;20832;-86
2022/07/03 00:59:48;;;;;;;2.83;2.20;;;15.40;99.90;;;;;;5083192;28;20648;-86
2022/07/03 01:02:34;;;;;;;2.80;2.50;;;15.30;99.90;;;;;;5082852;28;20256;-86
2022/07/03 01:05:09;;;;;;;2.83;2.20;;;15.40;99.90;;;;;;5085155;28;20176;-86
2022/07/03 01:08:08;;;;;;;2.70;2.40;;;15.30;99.90;;;;;;5085047;28;20176;-86
2022/07/03 01:10:37;;;;;;;3.40;2.47;;;15.40;99.90;;;;;;5059351;28;20189;-86
2022/07/03 01:13:12;;;;;;;2.50;2.30;;;15.40;99.90;;;;;;5086069;28;20172;-86
2022/07/03 01:16:04;;;;;;;3.13;2.33;;;15.30;99.90;;;;;;5089144;28;20161;-86
2022/07/03 01:18:40;;;;;;;7.97;2.30;;;15.30;99.90;;;;;;5083939;28;20567;-86
2022/07/03 01:21:08;;;;;;;2.63;2.30;;;15.30;99.90;;;;;;5083842;28;20192;-86
2022/07/03 01:23:55;;;;;;;2.50;2.30;;;15.30;99.90;;;;;;5082390;28;20173;-86
2022/07/03 01:26:27;;;;;;;2.97;2.47;;;15.30;99.90;;;;;;5082388;28;20753;-86
2022/07/03 01:28:54;;;;;;;2.40;2.20;;;15.30;99.90;;;;;;5082734;28;20176;-86
2022/07/03 01:31:21;;;;;;;4.13;2.47;;;15.40;99.90;;;;;;5081769;28;20204;-86
2022/07/03 01:33:50;;;;;;;4.90;2.30;;;15.30;99.90;;;;;;5082573;28;20179;-86
2022/07/03 01:36:18;;;;;;;2.93;2.63;;;15.50;99.90;;;;;;5083118;28;20184;-86
2022/07/03 01:38:45;;;;;;;2.43;2.23;;;15.40;99.90;;;;;;5084885;28;20193;-86
2022/07/03 01:41:12;;;;;;;3.03;2.50;;;15.40;99.90;;;;;;5082968;28;20216;-86
2022/07/03 01:43:49;;;;;;;2.67;2.47;;;15.60;99.90;;;;;;5083231;28;20168;-86
2022/07/03 01:46:20;;;;;;;3.10;2.50;;;15.40;99.90;;;;;;5085811;28;20175;-86
2022/07/03 01:48:49;;;;;;;2.40;2.20;;;15.30;99.90;;;;;;5084410;28;20176;-86
2022/07/03 01:51:16;;;;;;;2.60;2.40;;;15.50;99.90;;;;;;5084362;28;20196;-86
2022/07/03 01:53:48;;;;;;;2.40;2.20;;;15.40;99.90;;;;;;5084562;28;20184;-86
2022/07/03 01:56:15;;;;;;;2.60;2.40;;;15.50;99.90;;;;;;5085180;28;20176;-86
2022/07/03 01:58:41;;;;;;;2.40;2.20;;;;;;;;;;5084709;28;20247;-85
2022/07/03 02:01:40;;;;;;;2.60;2.40;;;15.50;99.90;;;;;;5085967;28;20287;-86
2022/07/03 02:04:28;;;;;;;2.80;2.43;;;15.60;99.90;;;;;;5033734;28;20183;-86
2022/07/03 02:07:10;;;;;;;3.57;2.17;;;15.60;99.90;;;;;;5086705;28;20173;-86
2022/07/03 02:09:46;;;;;;;6.30;2.40;;;15.40;99.90;;;;;;5085980;28;20177;-86
2022/07/03 02:12:14;;;;;;;2.90;2.47;;;15.60;99.90;;;;;;5093051;28;20200;-85
2022/07/03 02:14:44;;;;;;;4.37;2.50;;;15.60;99.90;;;;;;5097199;28;20185;-85
2022/07/03 02:17:17;;;;;;;2.17;1.97;;;15.60;99.90;;;;;;5087879;28;20560;-85
2022/07/03 02:19:55;;;;;;;6.33;2.30;;;15.70;99.90;;;;;;5077923;28;20195;-85
2022/07/03 02:22:30;;;;;;;2.50;2.30;;;15.70;99.90;;;;;;5077385;28;20197;-85
2022/07/03 02:25:08;;;;;;;2.17;1.97;;;15.70;99.90;;;;;;5077060;28;20156;-85
2022/07/03 02:28:14;;;;;;;2.57;2.37;;;15.80;99.90;;;;;;5076087;28;20185;-85
2022/07/03 02:30:43;;;;;;;2.47;2.27;;;15.40;99.90;;;;;;5074013;28;20189;-84
2022/07/03 02:33:11;;;;;;;3.40;2.77;;;15.70;99.90;;;;;;5079590;28;20183;-85
2022/07/03 02:35:37;;;;;;;2.53;2.00;;;;;;;;;;5095208;28;20189;-85
2022/07/03 02:38:19;;;;;;;2.57;2.37;;;15.80;99.90;;;;;;5098349;28;20268;-85
2022/07/03 02:41:09;;;;;;;3.57;1.73;;;15.70;99.90;;;;;;5080477;28;20207;-85
2022/07/03 02:43:51;;;;;;;5.17;2.10;;;15.70;99.90;;;;;;5082287;28;20580;-86
2022/07/03 02:46:49;;;;;;;2.00;1.80;;;15.70;99.90;;;;;;5085069;28;20220;-86
2022/07/03 02:49:42;;;;;;;3.50;2.20;;;15.60;99.90;;;;;;5085305;28;20274;-85
2022/07/03 02:52:53;;;;;;;2.20;1.90;;;15.60;99.90;;;;;;5084969;28;20200;-86
2022/07/03 02:55:22;;;;;;;3.93;1.80;;;15.80;99.90;;;;;;5070679;28;20543;-86
2022/07/03 02:57:55;;;;;;;3.00;1.90;;;15.60;99.90;;;;;;5087678;28;20245;-86
2022/07/03 03:00:24;;;;;;;2.30;2.10;;;15.60;99.90;;;;;;5085487;28;20184;-86
2022/07/03 03:02:49;;;;;;;2.13;1.93;;;15.60;99.90;;;;;;5086951;28;20287;-85
2022/07/03 03:05:26;;;;;;;5.73;1.80;;;15.70;99.90;;;;;;5086877;28;20169;-86
2022/07/03 03:08:32;;;;;;;2.00;1.80;;;15.60;99.90;;;;;;5086437;28;20206;-86
2022/07/03 03:11:05;;;;;;;2.13;1.60;;;15.40;99.90;;;;;;5087881;28;20196;-86
2022/07/03 03:13:32;;;;;;;2.20;1.83;;;15.70;99.90;;;;;;5087060;28;20202;-86
2022/07/03 03:16:12;;;;;;;1.97;1.77;;;15.80;99.90;;;;;;5086403;28;20199;-86
2022/07/03 03:18:39;;;;;;;1.73;1.63;;;15.60;99.90;;;;;;5087286;28;20203;-86
2022/07/03 03:21:17;;;;;;;2.93;2.20;;;15.60;99.90;;;;;;5087967;28;20246;-86
2022/07/03 03:24:01;;;;;;;2.00;1.63;;;15.60;99.90;;;;;;5088193;28;20165;-86
2022/07/03 03:26:28;;;;;;;2.13;1.93;;;15.60;99.90;;;;;;5086871;28;20165;-86
2022/07/03 03:28:54;;;;;;;2.10;1.90;;;15.50;99.90;;;;;;5086297;28;20607;-86
2022/07/03 03:31:21;;;;;;;2.20;2.00;;;15.50;99.90;;;;;;5088280;28;20576;-86
2022/07/03 03:33:49;;;;;;;1.70;1.60;;;15.40;99.90;;;;;;5087629;28;20193;-86
2022/07/03 03:36:17;;;;;;;1.73;1.63;;;15.40;99.90;;;;;;5087695;28;20173;-86
2022/07/03 03:38:43;;;;;;;2.13;1.83;;;15.40;99.90;;;;;;5088647;28;20208;-87
2022/07/03 03:41:08;;;;;;;2.07;1.70;;;15.40;99.90;;;;;;5087653;28;20289;-86
2022/07/03 03:43:35;;;;;;;2.50;2.10;;;;;;;;;;5088576;28;20173;-86
2022/07/03 03:46:02;;;;;;;1.83;1.73;;;15.40;99.90;;;;;;5087939;28;20173;-86
2022/07/03 03:48:28;;;;;;;3.00;1.80;;;15.40;99.90;;;;;;5088396;28;20185;-86
2022/07/03 03:50:56;;;;;;;2.60;1.70;;;15.40;99.90;;;;;;5089638;28;20673;-87
2022/07/03 03:53:23;;;;;;;3.60;1.60;;;15.40;99.90;;;;;;5088518;28;20188;-86
2022/07/03 03:56:09;;;;;;;1.80;1.60;;;15.40;99.90;;;;;;5089560;28;20238;-87
2022/07/03 03:58:38;;;;;;;1.87;1.50;;;15.40;99.90;;;;;;5096739;28;20268;-85
2022/07/03 04:01:06;;;;;;;3.10;1.80;;;15.40;99.90;;;;;;5098790;28;20184;-86
2022/07/03 04:03:33;;;;;;;2.03;1.53;;;15.40;99.90;;;;;;5091638;28;20180;-86
2022/07/03 04:05:59;;;;;;;1.70;1.60;;;15.40;99.90;;;;;;5087812;28;20527;-86
2022/07/03 04:08:26;;;;;;;5.07;1.70;;;15.40;99.90;;;;;;5086125;28;20271;-86
2022/07/03 04:10:52;;;;;;;2.63;1.70;;;15.40;99.90;;;;;;5086731;28;20212;-86
2022/07/03 04:13:21;;;;;;;1.83;1.53;;;15.50;99.90;;;;;;5086618;28;20185;-86
2022/07/03 04:15:48;;;;;;;2.27;1.50;;;15.50;99.90;;;;;;5085882;28;20222;-86
2022/07/03 04:18:14;;;;;;;1.80;1.60;;;15.50;99.90;;;;;;5086001;28;20204;-86
2022/07/03 04:20:40;;;;;;;2.40;1.50;;;15.60;99.90;;;;;;5086214;28;20224;-86
2022/07/03 04:23:06;;;;;;;1.70;1.40;;;15.60;99.90;;;;;;5086562;28;20197;-86
2022/07/03 04:25:32;;;;;;;3.10;1.60;;;15.60;99.90;;;;;;5087690;28;20192;-86
2022/07/03 04:27:58;;;;;;;1.60;1.50;;;15.60;99.90;;;;;;5085509;28;20230;-86
2022/07/03 04:30:24;;;;;;;3.13;1.70;;;15.70;99.90;;;;;;5084401;28;20185;-87
2022/07/03 04:32:50;;;;;;;1.83;1.50;;;;;;;;;;5085563;28;20200;-86
2022/07/03 04:35:17;;;;;;;3.47;1.47;;;15.70;99.90;;;;;;5087099;28;20188;-86
2022/07/03 04:37:44;;;;;;;1.63;1.53;;;15.80;99.90;;;;;;5084759;28;20205;-86
2022/07/03 04:40:10;;;;;;;1.87;1.40;;;15.80;99.90;;;;;;5082888;28;20201;-86
2022/07/03 04:42:36;;;;;;;2.17;1.90;;;15.80;99.90;;;;;;5081042;28;20192;-86
2022/07/03 04:45:02;;;;;;;1.87;1.60;;;15.90;99.90;;;;;;5078482;28;20233;-85
2022/07/03 04:47:28;;;;;;;1.60;1.43;;;15.80;99.90;;;;;;5078750;28;20177;-85
2022/07/03 04:49:54;;;;;;;1.63;1.53;;;15.90;99.90;;;;;;5076444;28;20188;-85
2022/07/03 04:52:19;;;;;;;2.17;1.80;;;16.00;99.90;;;;;;5076466;28;20233;-85
2022/07/03 04:54:45;;;;;;;1.30;1.20;;;16.00;99.90;;;;;;5090861;28;20210;-86
2022/07/03 04:57:11;;;;;;;1.47;1.30;;;16.10;99.90;;;;;;5100167;28;20240;-86
2022/07/03 05:39:33;;;;;;;4.57;1.40;;;17.30;99.90;;;;;;5156545;27;20288;-84
2022/07/03 05:41:59;;;;;;;1.30;1.20;;;17.40;99.90;;;;;;5146383;28;20204;-85
2022/07/03 05:44:25;;;;;;;2.47;1.60;;;17.50;99.90;;;;;;5153918;28;20180;-84
2022/07/03 05:46:51;;;;;;;2.13;1.57;;;17.60;99.90;;;;;;5155123;28;20160;-85
2022/07/03 05:49:17;;;;;;;3.20;1.67;;;17.60;99.90;;;;;;5155511;27;20180;-85
2022/07/03 05:51:42;;;;;;;1.50;1.40;;;17.70;99.90;;;;;;5153855;28;20184;-85
2022/07/03 05:54:08;;;;;;;4.43;1.50;;;17.80;99.90;;;;;;5136066;28;20182;-86
2022/07/03 05:56:34;;;;;;;1.93;1.40;;;17.90;99.90;;;;;;5136774;28;20178;-86
2022/07/03 05:58:59;;;;;;;3.30;1.20;;;18.00;99.90;;;;;;5137563;27;20716;-86
2022/07/03 06:01:25;;;;;;;1.17;1.03;;;18.00;99.90;;;;;;5138808;28;20207;-85
2022/07/03 06:03:51;;;;;;;1.40;1.20;;;18.10;99.90;;;;;;5139014;28;20240;-86
2022/07/03 06:06:16;;;;;;;1.77;1.20;;;18.10;99.90;;;;;;5138362;28;20630;-86
2022/07/03 06:08:42;;;;;;;1.57;1.30;;;18.20;99.90;;;;;;5140045;27;20193;-86
2022/07/03 06:11:08;;;;;;;1.63;1.30;;;18.30;99.90;;;;;;5137317;28;20197;-86
2022/07/03 06:13:34;;;;;;;1.20;1.10;;;18.30;99.90;;;;;;5138690;28;20619;-86
2022/07/03 06:16:00;;;;;;;2.00;1.40;;;18.40;99.90;;;;;;5141699;28;20199;-86
2022/07/03 06:18:25;;;;;;;2.33;1.30;;;18.50;99.90;;;;;;5145221;27;20200;-87
2022/07/03 06:20:51;;;;;;;1.30;1.20;;;18.60;99.90;;;;;;5141047;28;20219;-85
2022/07/03 06:23:17;;;;;;;1.70;1.30;;;18.70;99.90;;;;;;5141670;28;20188;-86
2022/07/03 06:25:43;;;;;;;1.60;1.40;;;18.80;99.90;;;;;;5141708;28;20208;-87
2022/07/03 06:28:08;;;;;;;2.43;1.30;;;18.90;99.90;;;;;;5147535;28;20184;-86
2022/07/03 06:30:34;;;;;;;1.70;1.40;;;19.20;99.90;;;;;;5144686;28;20242;-85
2022/07/03 06:33:00;;;;;;;1.60;1.30;;;19.40;99.90;;;;;;5141892;28;20181;-86
2022/07/03 06:35:25;;;;;;;1.50;1.40;;;19.50;99.90;;;;;;5143043;28;20180;-86
2022/07/03 06:37:51;;;;;;;1.37;1.27;;;19.70;99.90;;;;;;5139875;28;20220;-86
2022/07/03 06:40:17;;;;;;;3.00;1.40;;;19.90;99.90;;;;;;5149402;28;20175;-86
2022/07/03 06:42:42;;;;;;;1.40;1.30;;;20.00;99.90;;;;;;5148170;28;20199;-86
2022/07/03 06:45:08;;;;;;;2.40;1.37;;;20.10;99.90;;;;;;5143867;28;20208;-87
2022/07/03 06:47:40;;;;;;;1.67;1.40;;;20.30;99.90;;;;;;5146918;28;20587;-87
2022/07/03 06:50:07;;;;;;;3.00;1.47;;;20.40;99.90;;;;;;5138977;28;20181;-87
2022/07/03 06:52:33;;;;;;;1.53;1.40;;;20.50;99.90;;;;;;5122986;28;20203;-86
2022/07/03 06:54:58;;;;;;;2.77;1.30;;;20.60;99.90;;;;;;5128128;28;20205;-86
2022/07/03 06:57:24;;;;;;;2.50;1.40;;;20.70;99.90;;;;;;5129219;28;20207;-86
2022/07/03 06:59:50;;;;;;;2.70;1.60;;;20.80;99.90;;;;;;5130260;28;20656;-87
2022/07/03 07:02:16;;;;;;;6.60;1.50;;;20.90;99.90;;;;;;5130213;28;20211;-87
2022/07/03 07:04:41;;;;;;;2.37;1.10;;;21.00;99.90;;;;;;5132440;28;20200;-86
2022/07/03 07:07:07;;;;;;;12.63;1.50;;;21.10;99.90;;;;;;5123489;28;20176;-85
2022/07/03 07:09:33;;;;;;;1.80;1.60;;;21.10;99.90;;;;;;5130800;28;20199;-85
2022/07/03 07:11:58;;;;;;;1.40;1.30;;;21.20;99.90;;;;;;5141928;28;20194;-86
2022/07/03 07:14:24;;;;;;;1.30;1.20;;;21.20;99.90;;;;;;5138255;28;20172;-87
2022/07/03 07:16:50;;;;;;;1.40;1.20;;;21.30;99.90;;;;;;5133252;28;20235;-87
2022/07/03 07:19:15;;;;;;;1.60;1.50;;;21.30;99.90;;;;;;5135589;28;20386;-86
2022/07/03 07:21:41;;;;;;;2.57;1.40;;;21.30;99.90;;;;;;5137682;28;20695;-86
2022/07/03 07:24:07;;;;;;;3.57;1.43;;;21.40;99.90;;;;;;5138857;28;20182;-86
2022/07/03 07:26:33;;;;;;;1.40;1.30;;;21.50;99.90;;;;;;5129393;28;20176;-85
2022/07/03 07:28:58;;;;;;;2.13;1.30;;;21.60;99.90;;;;;;5126920;28;20175;-87
2022/07/03 07:31:24;;;;;;;1.47;1.20;;;21.70;99.90;;;;;;5129471;28;20739;-86
2022/07/03 07:33:50;;;;;;;3.83;1.30;;;21.80;99.90;;;;;;5120269;28;20172;-86
2022/07/03 07:36:15;;;;;;;1.47;1.17;;;21.90;99.90;;;;;;5120911;28;20388;-86
2022/07/03 07:38:41;;;;;;;1.00;0.90;;;21.90;99.90;;;;;;5119977;28;20233;-87
2022/07/03 07:41:07;;;;;;;2.17;1.17;;;22.00;99.90;;;;;;5121903;28;20237;-85
2022/07/03 07:43:32;;;;;;;5.37;1.30;;;22.00;99.90;;;;;;5120414;28;20172;-87
2022/07/03 07:45:58;;;;;;;1.80;1.10;;;22.10;99.90;;;;;;5118214;28;20175;-87
2022/07/03 07:48:24;;;;;;;3.13;1.13;;;22.20;99.90;;;;;;5118653;28;20588;-87
2022/07/03 07:50:50;;;;;;;1.13;1.10;;;22.30;99.90;;;;;;5118484;28;20246;-82
2022/07/03 07:53:16;;;;;;;1.20;1.10;;;22.40;99.90;;;;;;5121443;28;20176;-86
2022/07/03 07:55:41;;;;;;;1.40;1.20;;;22.50;99.90;;;;;;5122086;28;20267;-87
2022/07/03 07:58:08;;;;;;;2.30;1.00;;;22.60;99.90;;;;;;5122445;28;20291;-87
2022/07/03 08:00:34;;;;;;;1.40;1.30;;;22.70;99.90;;;;;;5122941;28;20633;-87
2022/07/03 08:05:43;;;;;;;1.17;1.07;;;22.80;99.90;;;;;;5123819;28;20155;-86
2022/07/03 08:08:15;;;;;;;1.47;1.00;;;22.90;99.90;;;;;;5124204;28;20203;-86
2022/07/03 08:10:48;;;;;;;1.80;1.03;;;22.90;99.90;;;;;;5123473;28;20176;-87
2022/07/03 08:13:18;;;;;;;3.70;0.90;;;22.90;99.90;;;;;;5123120;28;20169;-86
2022/07/03 08:15:45;;;;;;;1.10;1.00;;;23.00;99.90;;;;;;5125342;28;20192;-87
2022/07/03 08:18:11;;;;;;;4.03;1.30;;;23.10;99.90;;;;;;5109366;28;20195;-87
2022/07/03 08:20:37;;;;;;;1.27;1.17;;;23.40;99.90;;;;;;5122713;28;20629;-86
2022/07/03 08:23:04;;;;;;;1.00;1.00;;;23.30;99.90;;;;;;5123272;28;20179;-86
2022/07/03 08:25:30;;;;;;;1.40;1.13;;;23.40;99.90;;;;;;5121958;28;20641;-87
2022/07/03 08:27:56;;;;;;;1.53;1.20;;;23.50;99.90;;;;;;5124024;28;20199;-86
2022/07/03 08:30:22;;;;;;;1.93;1.00;;;23.60;99.90;;;;;;5122886;28;20180;-86
2022/07/03 08:32:49;;;;;;;1.10;1.00;;;23.70;99.90;;;;;;5124127;28;20200;-86
2022/07/03 08:35:14;;;;;;;1.10;0.90;;;23.80;99.90;;;;;;5123227;28;20584;-86
2022/07/03 08:37:42;;;;;;;1.23;1.00;;;23.80;99.90;;;;;;5122657;28;20229;-86
2022/07/03 08:40:10;;;;;;;2.67;0.93;;;23.90;99.90;;;;;;5125831;28;20198;-86
2022/07/03 08:42:40;;;;;;;0.80;0.80;;;24.00;99.90;;;;;;5125909;28;20587;-84
2022/07/03 08:45:08;;;;;;;0.80;0.80;;;24.10;99.90;;;;;;5125982;28;20167;-85
2022/07/03 08:47:36;;;;;;;2.07;1.00;;;24.30;99.90;;;;;;5125595;28;20249;-85
2022/07/03 08:50:02;;;;;;;1.03;0.70;;;24.30;99.90;;;;;;5126047;28;20175;-85
2022/07/03 08:52:29;;;;;;;1.30;1.10;;;24.50;99.90;;;;;;5127649;28;20265;-85
2022/07/03 08:54:54;;;;;;;2.13;1.00;;;24.60;99.00;;;;;;5129216;28;20168;-86
2022/07/03 08:57:21;;;;;;;1.00;0.80;;;24.60;97.10;;;;;;5133996;28;20229;-84
2022/07/03 08:59:52;;;;;;;0.80;0.80;;;24.60;97.10;;;;;;5135062;28;20172;-85
2022/07/03 09:02:18;;;;;;;1.00;0.90;;;24.60;96.40;;;;;;5121953;28;20196;-84
2022/07/03 09:04:46;;;;;;;1.07;0.70;;;24.80;96.90;;;;;;5120076;28;20218;-85
2022/07/03 09:07:13;;;;;;;0.90;0.70;;;24.90;96.50;;;;;;5121055;28;20180;-84
2022/07/03 09:09:39;;;;;;;0.97;0.83;;;25.00;94.10;;;;;;5122488;28;20530;-84
2022/07/03 09:12:06;;;;;;;0.90;0.70;;;25.20;97.30;;;;;;5122632;28;20188;-85
2022/07/03 09:14:34;;;;;;;0.80;0.70;;;25.40;95.50;;;;;;5122091;28;20239;-84
2022/07/03 09:17:00;;;;;;;1.10;0.73;;;25.50;94.80;;;;;;5121168;28;20611;-84
2022/07/03 09:19:47;;;;;;;1.53;0.80;;;25.70;95.90;;;;;;5116155;28;20304;-84
2022/07/03 09:22:26;;;;;;;1.00;0.80;;;25.80;92.00;;;;;;5120006;28;20195;-83
2022/07/03 09:25:14;;;;;;;0.80;0.50;;;25.80;91.10;;;;;;5135699;28;20156;-84
2022/07/03 09:27:52;;;;;;;1.00;0.70;;;25.90;91.20;;;;;;5136011;28;20179;-86
2022/07/03 09:30:19;;;;;;;0.80;0.73;;;25.90;89.20;;;;;;5121881;28;20191;-85
2022/07/03 09:32:46;;;;;;;1.87;1.40;;;25.90;93.50;;;;;;5122291;28;20201;-85
2022/07/03 09:35:21;;;;;;;2.70;1.53;;;25.90;88.10;;;;;;5122992;28;20174;-84
2022/07/03 09:37:51;;;;;;;3.23;0.60;;;26.10;88.50;;;;;;5123780;28;20226;-86
2022/07/03 09:40:18;;;;;;;1.90;0.63;;;26.30;86.20;;;;;;5123756;28;20177;-84
2022/07/03 09:43:04;;;;;;;2.60;1.00;;;26.40;86.00;;;;;;5122000;28;20229;-84
2022/07/03 09:45:56;;;;;;;1.50;0.90;;;26.50;90.10;;;;;;5122518;28;20204;-85
2022/07/03 09:48:34;;;;;;;1.83;1.07;;;26.50;83.40;;;;;;5123199;28;20177;-85
2022/07/03 09:51:28;;;;;;;0.93;0.90;;;26.50;84.30;;;;;;5124857;28;20283;-85
2022/07/03 09:54:04;;;;;;;0.80;0.70;;;26.60;81.50;;;;;;5123326;28;20176;-85
2022/07/03 09:56:39;;;;;;;0.70;0.60;;;26.70;81.60;;;;;;5124611;28;20175;-85
2022/07/03 09:59:12;;;;;;;0.93;0.53;;;26.80;81.00;;;;;;5125326;28;20205;-85
2022/07/03 10:01:47;;;;;;;1.30;0.90;;;26.90;85.40;;;;;;5126114;28;20675;-86
2022/07/03 10:04:18;;;;;;;1.00;0.67;;;27.00;85.30;;;;;;5125972;28;20178;-86
2022/07/03 10:06:48;;;;;;;0.77;0.60;;;27.20;79.50;;;;;;5125654;28;20556;-85
2022/07/03 10:09:18;;;;;;;0.80;0.63;;;27.30;82.70;;;;;;5126445;28;20250;-85
2022/07/03 10:11:45;;;;;;;1.00;0.60;;;27.40;81.50;;;;;;5128159;28;20277;-85
2022/07/03 10:14:15;;;;;;;0.73;0.50;;;27.40;76.80;;;;;;5128815;28;20176;-86
2022/07/03 10:16:41;;;;;;;1.47;0.73;;;27.40;74.70;;;;;;5127908;28;20175;-85
2022/07/03 10:19:19;;;;;;;0.90;0.73;;;27.50;76.30;;;;;;5130971;28;20192;-85
2022/07/03 10:21:55;;;;;;;1.67;0.90;;;27.60;82.30;;;;;;5124171;28;20199;-86
2022/07/03 10:24:23;;;;;;;2.17;1.20;;;27.70;79.40;;;;;;5128154;28;20254;-86
2022/07/03 10:26:50;;;;;;;2.40;1.50;;;27.80;81.80;;;;;;5132765;28;20170;-86
2022/07/03 10:29:16;;;;;;;1.50;1.23;;;27.90;72.40;;;;;;5130940;28;20180;-87
2022/07/03 10:31:46;;;;;;;1.20;1.03;;;27.90;74.10;;;;;;5135343;28;20585;-86
2022/07/03 10:34:19;;;;;;;0.70;0.70;;;27.90;74.00;;;;;;5134736;28;20194;-86
2022/07/03 10:36:47;;;;;;;1.67;0.87;;;28.00;76.50;;;;;;5139931;27;20169;-85
2022/07/03 10:39:40;;;;;;;1.50;0.80;;;28.00;78.30;;;;;;5138082;28;20210;-86
2022/07/03 10:45:11;;;;;;;1.60;0.73;;;28.30;75.40;;;;;;5133756;28;20176;-86
2022/07/03 10:47:40;;;;;;;1.83;0.80;;;28.50;75.20;;;;;;5131129;28;20194;-84
2022/07/03 10:50:17;;;;;;;0.83;0.70;;;28.50;75.10;;;;;;5131085;28;20242;-83
2022/07/03 10:52:44;;;;;;;1.40;0.57;;;28.70;75.60;;;;;;5130528;28;20193;-85
2022/07/03 10:55:11;;;;;;;1.07;0.63;;;28.90;86.40;;;;;;5129294;28;20251;-85
2022/07/03 10:57:38;;;;;;;1.43;0.97;;;29.00;76.20;;;;;;5129994;28;20279;-84
2022/07/03 11:00:08;;;;;;;1.13;0.70;;;29.00;77.10;;;;;;5130328;28;20168;-83
2022/07/03 11:02:40;;;;;;;1.03;0.83;;;29.10;68.20;;;;;;5135594;28;20192;-84
2022/07/03 11:05:20;;;;;;;0.80;0.80;;;29.10;73.30;;;;;;5133343;28;20178;-84
2022/07/03 11:07:54;;;;;;;1.00;0.70;;;29.10;66.10;;;;;;5132333;28;20172;-83
2022/07/03 11:10:20;;;;;;;1.33;0.70;;;29.10;77.50;;;;;;5134736;28;20251;-84
2022/07/03 11:13:04;;;;;;;1.77;0.90;;;29.20;69.20;;;;;;5132273;28;20195;-83
2022/07/03 11:15:48;;;;;;;0.90;0.80;;;29.40;69.40;;;;;;5132172;28;20192;-85
2022/07/03 11:18:17;;;;;;;2.30;0.97;;;29.50;65.30;;;;;;5130440;28;20201;-84
2022/07/03 11:20:42;;;;;;;1.67;1.00;;;29.50;67.60;;;;;;5136042;28;20182;-85
2022/07/03 11:23:26;;;;;;;2.83;1.00;;;29.50;68.60;;;;;;5134288;28;20184;-84
2022/07/03 11:25:58;;;;;;;1.53;1.00;;;29.60;74.70;;;;;;5130930;28;20179;-83
2022/07/03 11:28:32;;;;;;;1.73;0.97;;;29.80;75.00;;;;;;5136828;28;20184;-82
2022/07/03 11:31:13;;;;;;;1.33;1.03;;;29.90;71.40;;;;;;5129390;28;20221;-81
2022/07/03 11:33:42;;;;;;;1.87;1.10;;;29.90;80.10;;;;;;5119916;28;20203;-81
2022/07/03 11:36:11;;;;;;;2.30;0.90;;;29.90;67.30;;;;;;5137090;28;20222;-82
2022/07/03 11:38:37;;;;;;;0.83;0.83;;;30.00;69.40;;;;;;5141363;28;20214;-82
2022/07/03 11:41:08;;;;;;;1.30;0.83;;;30.10;76.60;;;;;;5127521;28;20564;-83
2022/07/03 11:43:36;;;;;;;1.13;0.90;;;30.30;73.60;;;;;;5128965;28;20637;-83
2022/07/03 11:46:03;;;;;;;3.00;1.10;;;30.40;69.40;;;;;;5129774;28;20243;-84
2022/07/03 11:48:30;;;;;;;1.73;1.07;;;30.60;74.60;;;;;;5128749;28;20180;-83
2022/07/03 11:51:03;;;;;;;1.47;1.00;;;30.70;71.90;;;;;;5127306;28;20200;-84
2022/07/03 11:53:36;;;;;;;1.00;0.90;;;30.80;72.00;;;;;;5128096;28;20168;-84
2022/07/03 11:56:06;;;;;;;1.63;0.90;;;30.80;67.80;;;;;;5128310;28;20190;-82
2022/07/03 11:58:53;;;;;;;1.77;1.03;;;30.70;69.60;;;;;;5126633;28;20212;-84
2022/07/03 12:01:22;;;;;;;1.10;1.00;;;30.90;65.10;;;;;;5125444;28;20557;-83
2022/07/03 12:03:48;;;;;;;3.90;1.43;;;31.00;71.30;;;;;;5127095;28;20267;-85
2022/07/03 12:06:15;;;;;;;0.80;0.80;;;30.90;66.60;;;;;;5128978;28;20165;-85
2022/07/03 12:08:45;;;;;;;1.30;1.20;;;30.80;63.30;;;;;;5127341;28;20203;-84
2022/07/03 12:11:12;;;;;;;2.23;1.00;;;30.80;72.30;;;;;;5134258;28;20168;-82
2022/07/03 12:13:38;;;;;;;1.00;1.00;;;30.90;69.90;;;;;;5137349;28;20177;-82
2022/07/03 12:16:08;;;;;;;2.80;0.93;;;31.00;64.00;;;;;;5135614;28;20255;-85
2022/07/03 12:18:51;;;;;;;2.47;1.10;;;31.00;65.20;;;;;;5128422;28;20178;-84
2022/07/03 12:21:22;;;;;;;1.20;0.97;;;31.00;60.70;;;;;;5127842;28;20690;-84
2022/07/03 12:23:54;;;;;;;1.07;0.97;;;31.00;63.30;;;;;;5129509;28;20214;-84
2022/07/03 12:26:34;;;;;;;1.83;0.90;;;31.10;64.70;;;;;;5126945;28;20545;-81
2022/07/03 12:29:12;;;;;;;1.30;1.20;;;31.20;71.30;;;;;;5129078;28;20232;-82
2022/07/03 12:31:43;;;;;;;0.90;0.83;;;31.20;65.30;;;;;;5125364;28;20627;-83
2022/07/03 12:34:10;;;;;;;1.40;0.93;;;31.20;67.40;;;;;;5125686;28;20223;-83
2022/07/03 12:36:37;;;;;;;0.80;0.80;;;31.40;66.30;;;;;;5126686;28;20275;-81
2022/07/03 12:39:03;;;;;;;1.10;0.90;;;31.50;65.60;;;;;;5129441;28;20188;-85
2022/07/03 12:41:29;;;;;;;2.30;1.10;;;31.50;67.70;;;;;;5126850;28;20195;-83
2022/07/03 12:43:58;;;;;;;1.30;1.20;;;31.50;62.70;;;;;;5131673;28;20188;-82
2022/07/03 12:46:32;;;;;;;1.20;1.10;;;31.60;63.50;;;;;;5137185;28;20228;-84
2022/07/03 12:49:00;;;;;;;2.80;1.20;;;31.90;64.20;;;;;;5127507;28;20210;-84
2022/07/03 12:51:41;;;;;;;2.07;0.97;;;31.90;59.90;;;;;;5122714;28;20192;-82
2022/07/03 12:54:16;;;;;;;1.10;1.00;;;31.90;60.60;;;;;;5124282;28;20584;-82
2022/07/03 12:56:43;;;;;;;3.20;1.37;;;31.90;64.40;;;;;;5122798;28;20167;-83
2022/07/03 12:59:25;;;;;;;2.13;1.20;;;31.90;66.30;;;;;;5123731;28;20189;-84
2022/07/03 13:02:05;;;;;;;2.03;1.13;;;32.00;66.00;;;;;;5125093;28;20192;-81
2022/07/03 13:04:38;;;;;;;2.87;1.07;;;32.10;60.40;;;;;;5123317;28;20182;-80
2022/07/03 13:07:06;;;;;;;1.30;1.20;;;32.10;63.10;;;;;;5122815;28;20265;-81
2022/07/03 13:09:33;;;;;;;1.50;1.20;;;32.10;68.10;;;;;;5122005;28;20200;-83
2022/07/03 13:11:58;;;;;;;1.77;1.10;;;32.20;61.70;;;;;;5124358;28;20197;-83
2022/07/03 13:14:24;;;;;;;1.83;1.00;;;32.20;63.20;;;;;;5124037;28;20174;-82
2022/07/03 13:16:55;;;;;;;1.73;1.10;;;32.20;64.00;;;;;;5123136;28;20538;-82
2022/07/03 13:19:27;;;;;;;1.87;1.10;;;32.30;64.00;;;;;;5122183;28;20182;-83
2022/07/03 13:21:54;;;;;;;1.10;1.00;;;32.40;65.40;;;;;;5122583;28;20226;-82
2022/07/03 13:24:21;;;;;;;2.73;1.20;;;32.50;63.20;;;;;;5124451;28;20199;-82
2022/07/03 13:26:48;;;;;;;1.30;1.20;;;32.60;67.40;;;;;;5126257;27;20179;-83
2022/07/03 13:29:14;;;;;;;1.20;0.90;;;32.70;69.80;;;;;;5124679;28;20204;-82
2022/07/03 13:31:40;;;;;;;1.23;1.00;;;32.60;63.70;;;;;;5125650;28;20201;-83
2022/07/03 13:34:06;;;;;;;4.20;1.20;;;32.60;67.10;;;;;;5119730;28;20174;-84
2022/07/03 13:36:32;;;;;;;1.40;1.07;;;32.60;59.90;;;;;;5119954;28;20174;-82
2022/07/03 13:38:58;;;;;;;2.53;1.10;;;32.40;60.40;;;;;;5119205;28;20188;-82
2022/07/03 13:41:25;;;;;;;1.67;1.57;;;32.20;62.10;;;;;;5116873;28;20241;-82
2022/07/03 13:43:51;;;;;;;1.17;1.07;;;32.30;64.00;;;;;;5116220;28;20312;-81
2022/07/03 13:46:18;;;;;;;4.67;1.23;;;32.40;61.20;;;;;;5128261;28;20224;-81
2022/07/03 13:48:44;;;;;;;1.63;1.10;;;32.40;63.00;;;;;;5139652;28;20216;-81
2022/07/03 13:51:10;;;;;;;1.30;1.20;;;32.40;60.70;;;;;;5137141;28;20219;-82